CMA CGM Kingfish — A8YW9 — position and weather

sailwx.info

Track history (hours):
 
Tides and Currents Weather Stations Pressure Air Temp Water Temp Dewpoint Dewpoint Depression Visibility Wind Speed Wind Dir Waves Ship Positions

CMA CGM Kingfish

Last reported at 2016-Jun-23 18:33 UTC. Time now 2016-Jun-27 05:59 UTC.
Position N 01°16' E 104°09'.

Length 294 m; draft 10.6 m.

Type: Ship (hazmat cat A). MMSI: 636015147.

Date/timePositionNaut miles runAvg speedWind from/ knotsBaromVisibWave heightAir tempDewpointWater temp
2016-Jun-23 18:33N 01°16' E 104°09'1414.1
2016-Jun-23 17:33N 01°13' E 103°55'9 9.2
2016-Jun-23 16:32N 01°15' E 103°46'1 0.9
2016-Jun-23 15:31N 01°16' E 103°47'0 0.0
2016-Jun-23 14:31N 01°16' E 103°47'0 0.0
2016-Jun-23 13:25N 01°16' E 103°47'0 0.0
2016-Jun-23 12:19N 01°16' E 103°47'0 0.0
2016-Jun-23 11:10N 01°16' E 103°47'0 0.0
2016-Jun-23 10:25N 01°16' E 103°47'0 0.0
2016-Jun-23 09:31N 01°16' E 103°47'0 0.1
2016-Jun-23 08:31N 01°16' E 103°47'0 0.0
2016-Jun-23 07:31N 01°16' E 103°47'0 0.0
2016-Jun-23 05:31N 01°16' E 103°47'0 0.0
2016-Jun-23 04:25N 01°16' E 103°47'0 0.0
2016-Jun-23 03:31N 01°16' E 103°47'0 0.0
2016-Jun-23 02:28N 01°16' E 103°47'0 0.0
2016-Jun-23 01:31N 01°16' E 103°47'0 0.0
2016-Jun-23 00:31N 01°16' E 103°47'0 0.3
2016-Jun-22 23:34N 01°16' E 103°47'3 2.9
2016-Jun-22 22:33N 01°15' E 103°44'8 8.2
2016-Jun-22 21:31N 01°13' E 103°36'7912.6
2016-Jun-22 15:16N 01°48' E 102°26'  
Track history (hours):
 
Tides and Currents Weather Stations Pressure Air Temp Water Temp Dewpoint Dewpoint Depression Visibility Wind Speed Wind Dir Waves Ship Positions

CMA CGM Kingfish

Last reported at 2016-Jun-23 18:33 UTC. Time now 2016-Jun-27 05:59 UTC.
Position N 01°16' E 104°09'.

Length 294 m; draft 10.6 m.

Type: Ship (hazmat cat A). MMSI: 636015147.

Date/timePositionNaut miles runAvg speedWind from/ knotsBaromVisibWave heightAir tempDewpointWater temp
2016-Jun-23 18:33N 01°16' E 104°09'1414.1
2016-Jun-23 17:33N 01°13' E 103°55'9 9.2
2016-Jun-23 16:32N 01°15' E 103°46'1 0.9
2016-Jun-23 15:31N 01°16' E 103°47'0 0.0
2016-Jun-23 14:31N 01°16' E 103°47'0 0.0
2016-Jun-23 13:25N 01°16' E 103°47'0 0.0
2016-Jun-23 12:19N 01°16' E 103°47'0 0.0
2016-Jun-23 11:10N 01°16' E 103°47'0 0.0
2016-Jun-23 10:25N 01°16' E 103°47'0 0.0
2016-Jun-23 09:31N 01°16' E 103°47'0 0.1
2016-Jun-23 08:31N 01°16' E 103°47'0 0.0
2016-Jun-23 07:31N 01°16' E 103°47'0 0.0
2016-Jun-23 05:31N 01°16' E 103°47'0 0.0
2016-Jun-23 04:25N 01°16' E 103°47'0 0.0
2016-Jun-23 03:31N 01°16' E 103°47'0 0.0
2016-Jun-23 02:28N 01°16' E 103°47'0 0.0
2016-Jun-23 01:31N 01°16' E 103°47'0 0.0
2016-Jun-23 00:31N 01°16' E 103°47'0 0.3
2016-Jun-22 23:34N 01°16' E 103°47'3 2.9
2016-Jun-22 22:33N 01°15' E 103°44'8 8.2
2016-Jun-22 21:31N 01°13' E 103°36'7912.6
2016-Jun-22 15:16N 01°48' E 102°26'  

Dump ship's entire track history